sensor_id;sensor_type;location;lat;lon;timestamp;P1;durP1;ratioP1;P2;durP2;ratioP2
32760;SDS011;19126;47.472;7.850;2023-04-07T00:01:28;7.30;;;3.58;;
32760;SDS011;19126;47.472;7.850;2023-04-07T00:03:56;4.53;;;2.78;;
32760;SDS011;19126;47.472;7.850;2023-04-07T00:06:25;6.35;;;2.63;;
32760;SDS011;19126;47.472;7.850;2023-04-07T00:08:52;5.28;;;3.38;;
32760;SDS011;19126;47.472;7.850;2023-04-07T00:11:20;5.18;;;3.47;;
32760;SDS011;19126;47.472;7.850;2023-04-07T00:13:47;6.65;;;3.08;;
32760;SDS011;19126;47.472;7.850;2023-04-07T00:16:14;4.82;;;2.83;;
32760;SDS011;19126;47.472;7.850;2023-04-07T00:18:42;6.50;;;3.47;;
32760;SDS011;19126;47.472;7.850;2023-04-07T00:21:09;3.25;;;2.85;;
32760;SDS011;19126;47.472;7.850;2023-04-07T00:23:38;3.70;;;2.92;;
32760;SDS011;19126;47.472;7.850;2023-04-07T00:26:06;4.15;;;3.00;;
32760;SDS011;19126;47.472;7.850;2023-04-07T00:28:34;6.10;;;3.20;;
32760;SDS011;19126;47.472;7.850;2023-04-07T00:31:01;7.13;;;3.00;;
32760;SDS011;19126;47.472;7.850;2023-04-07T00:33:29;4.78;;;2.78;;
32760;SDS011;19126;47.472;7.850;2023-04-07T00:35:59;4.90;;;3.05;;
32760;SDS011;19126;47.472;7.850;2023-04-07T00:38:26;6.35;;;3.85;;
32760;SDS011;19126;47.472;7.850;2023-04-07T00:40:57;5.75;;;3.25;;
32760;SDS011;19126;47.472;7.850;2023-04-07T00:43:27;3.08;;;2.33;;
32760;SDS011;19126;47.472;7.850;2023-04-07T00:45:55;4.05;;;3.00;;
32760;SDS011;19126;47.472;7.850;2023-04-07T00:48:22;3.25;;;2.75;;
32760;SDS011;19126;47.472;7.850;2023-04-07T00:50:50;7.97;;;2.95;;
32760;SDS011;19126;47.472;7.850;2023-04-07T00:53:18;4.47;;;3.15;;
32760;SDS011;19126;47.472;7.850;2023-04-07T00:55:45;3.25;;;2.80;;
32760;SDS011;19126;47.472;7.850;2023-04-07T00:58:14;4.90;;;2.80;;
32760;SDS011;19126;47.472;7.850;2023-04-07T01:00:44;3.22;;;2.55;;
32760;SDS011;19126;47.472;7.850;2023-04-07T01:03:29;2.80;;;2.53;;
32760;SDS011;19126;47.472;7.850;2023-04-07T01:08:32;8.85;;;3.10;;
32760;SDS011;19126;47.472;7.850;2023-04-07T01:11:09;3.13;;;2.55;;
32760;SDS011;19126;47.472;7.850;2023-04-07T01:13:47;6.95;;;2.90;;
32760;SDS011;19126;47.472;7.850;2023-04-07T01:16:18;3.80;;;3.13;;
32760;SDS011;19126;47.472;7.850;2023-04-07T01:18:53;3.70;;;2.83;;
32760;SDS011;19126;47.472;7.850;2023-04-07T01:21:24;7.03;;;2.60;;
32760;SDS011;19126;47.472;7.850;2023-04-07T01:24:04;4.00;;;2.90;;
32760;SDS011;19126;47.472;7.850;2023-04-07T01:27:04;6.97;;;3.22;;
32760;SDS011;19126;47.472;7.850;2023-04-07T01:29:48;3.17;;;2.58;;
32760;SDS011;19126;47.472;7.850;2023-04-07T01:32:17;4.22;;;2.83;;
32760;SDS011;19126;47.472;7.850;2023-04-07T01:34:46;3.80;;;2.58;;
32760;SDS011;19126;47.472;7.850;2023-04-07T01:37:15;5.70;;;3.75;;
32760;SDS011;19126;47.472;7.850;2023-04-07T01:39:44;5.32;;;2.50;;
32760;SDS011;19126;47.472;7.850;2023-04-07T01:42:11;2.95;;;2.63;;
32760;SDS011;19126;47.472;7.850;2023-04-07T01:44:40;4.22;;;2.55;;
32760;SDS011;19126;47.472;7.850;2023-04-07T01:47:09;5.07;;;2.83;;
32760;SDS011;19126;47.472;7.850;2023-04-07T01:49:38;3.15;;;2.50;;
32760;SDS011;19126;47.472;7.850;2023-04-07T01:52:07;4.93;;;3.00;;
32760;SDS011;19126;47.472;7.850;2023-04-07T01:54:35;4.53;;;2.72;;
32760;SDS011;19126;47.472;7.850;2023-04-07T01:57:03;5.53;;;3.13;;
32760;SDS011;19126;47.472;7.850;2023-04-07T01:59:30;7.40;;;2.95;;
32760;SDS011;19126;47.472;7.850;2023-04-07T02:01:57;3.15;;;2.80;;
32760;SDS011;19126;47.472;7.850;2023-04-07T02:04:28;4.30;;;2.33;;
32760;SDS011;19126;47.472;7.850;2023-04-07T02:07:05;4.45;;;2.80;;
32760;SDS011;19126;47.472;7.850;2023-04-07T02:09:40;4.70;;;2.97;;
32760;SDS011;19126;47.472;7.850;2023-04-07T02:12:11;3.03;;;2.72;;
32760;SDS011;19126;47.472;7.850;2023-04-07T02:14:41;4.15;;;3.42;;
32760;SDS011;19126;47.472;7.850;2023-04-07T02:17:09;3.88;;;2.63;;
32760;SDS011;19126;47.472;7.850;2023-04-07T02:19:40;3.67;;;2.80;;
32760;SDS011;19126;47.472;7.850;2023-04-07T02:22:08;4.10;;;2.60;;
32760;SDS011;19126;47.472;7.850;2023-04-07T02:24:35;3.28;;;2.97;;
32760;SDS011;19126;47.472;7.850;2023-04-07T02:27:06;4.95;;;3.17;;
32760;SDS011;19126;47.472;7.850;2023-04-07T02:29:33;5.75;;;2.97;;
32760;SDS011;19126;47.472;7.850;2023-04-07T02:32:01;3.72;;;2.65;;
32760;SDS011;19126;47.472;7.850;2023-04-07T02:34:28;4.00;;;2.83;;
32760;SDS011;19126;47.472;7.850;2023-04-07T02:36:57;4.63;;;2.58;;
32760;SDS011;19126;47.472;7.850;2023-04-07T02:39:24;4.15;;;2.85;;
32760;SDS011;19126;47.472;7.850;2023-04-07T02:41:52;3.10;;;2.60;;
32760;SDS011;19126;47.472;7.850;2023-04-07T02:44:19;3.80;;;2.67;;
32760;SDS011;19126;47.472;7.850;2023-04-07T02:46:46;2.67;;;2.35;;
32760;SDS011;19126;47.472;7.850;2023-04-07T02:49:14;3.80;;;3.00;;
32760;SDS011;19126;47.472;7.850;2023-04-07T02:51:41;3.95;;;2.70;;
32760;SDS011;19126;47.472;7.850;2023-04-07T02:54:12;5.68;;;2.80;;
32760;SDS011;19126;47.472;7.850;2023-04-07T02:56:39;4.00;;;2.70;;
32760;SDS011;19126;47.472;7.850;2023-04-07T02:59:07;3.75;;;2.72;;
32760;SDS011;19126;47.472;7.850;2023-04-07T03:01:34;3.28;;;2.70;;
32760;SDS011;19126;47.472;7.850;2023-04-07T03:04:02;5.32;;;2.70;;
32760;SDS011;19126;47.472;7.850;2023-04-07T03:06:30;5.65;;;2.88;;
32760;SDS011;19126;47.472;7.850;2023-04-07T03:08:58;3.90;;;2.35;;
32760;SDS011;19126;47.472;7.850;2023-04-07T03:11:27;3.33;;;2.42;;
32760;SDS011;19126;47.472;7.850;2023-04-07T03:13:54;4.78;;;2.88;;
32760;SDS011;19126;47.472;7.850;2023-04-07T03:16:21;4.10;;;3.30;;
32760;SDS011;19126;47.472;7.850;2023-04-07T03:18:49;3.00;;;2.58;;
32760;SDS011;19126;47.472;7.850;2023-04-07T03:21:16;7.13;;;3.20;;
32760;SDS011;19126;47.472;7.850;2023-04-07T03:23:43;3.00;;;2.65;;
32760;SDS011;19126;47.472;7.850;2023-04-07T03:26:11;3.25;;;2.58;;
32760;SDS011;19126;47.472;7.850;2023-04-07T03:28:42;9.05;;;3.13;;
32760;SDS011;19126;47.472;7.850;2023-04-07T03:31:10;5.35;;;2.92;;
32760;SDS011;19126;47.472;7.850;2023-04-07T03:33:37;4.38;;;3.15;;
32760;SDS011;19126;47.472;7.850;2023-04-07T03:36:07;3.03;;;2.72;;
32760;SDS011;19126;47.472;7.850;2023-04-07T03:38:35;4.38;;;2.55;;
32760;SDS011;19126;47.472;7.850;2023-04-07T03:41:02;6.95;;;2.90;;
32760;SDS011;19126;47.472;7.850;2023-04-07T03:43:30;3.35;;;2.67;;
32760;SDS011;19126;47.472;7.850;2023-04-07T03:45:58;6.70;;;3.42;;
32760;SDS011;19126;47.472;7.850;2023-04-07T03:48:26;3.22;;;2.55;;
32760;SDS011;19126;47.472;7.850;2023-04-07T03:50:53;5.53;;;2.95;;
32760;SDS011;19126;47.472;7.850;2023-04-07T03:53:20;4.20;;;3.30;;
32760;SDS011;19126;47.472;7.850;2023-04-07T03:55:48;5.82;;;3.28;;
32760;SDS011;19126;47.472;7.850;2023-04-07T03:58:16;6.38;;;3.03;;
32760;SDS011;19126;47.472;7.850;2023-04-07T04:00:43;5.68;;;2.75;;
32760;SDS011;19126;47.472;7.850;2023-04-07T04:03:12;3.47;;;2.63;;
32760;SDS011;19126;47.472;7.850;2023-04-07T04:05:39;4.35;;;2.83;;
32760;SDS011;19126;47.472;7.850;2023-04-07T04:08:06;3.38;;;3.05;;
32760;SDS011;19126;47.472;7.850;2023-04-07T04:10:34;7.93;;;3.63;;
32760;SDS011;19126;47.472;7.850;2023-04-07T04:13:01;4.10;;;3.17;;
32760;SDS011;19126;47.472;7.850;2023-04-07T04:15:30;4.15;;;2.85;;
32760;SDS011;19126;47.472;7.850;2023-04-07T04:17:58;5.03;;;3.00;;
32760;SDS011;19126;47.472;7.850;2023-04-07T04:20:26;4.78;;;2.78;;
32760;SDS011;19126;47.472;7.850;2023-04-07T04:22:54;4.80;;;3.45;;
32760;SDS011;19126;47.472;7.850;2023-04-07T04:25:21;7.05;;;3.47;;
32760;SDS011;19126;47.472;7.850;2023-04-07T04:27:49;8.95;;;3.22;;
32760;SDS011;19126;47.472;7.850;2023-04-07T04:30:16;4.90;;;2.42;;
32760;SDS011;19126;47.472;7.850;2023-04-07T04:32:44;6.13;;;3.03;;
32760;SDS011;19126;47.472;7.850;2023-04-07T04:35:11;5.28;;;3.33;;
32760;SDS011;19126;47.472;7.850;2023-04-07T04:37:40;5.80;;;3.28;;
32760;SDS011;19126;47.472;7.850;2023-04-07T04:40:08;4.35;;;3.25;;
32760;SDS011;19126;47.472;7.850;2023-04-07T04:42:36;4.93;;;3.15;;
32760;SDS011;19126;47.472;7.850;2023-04-07T04:45:04;6.00;;;2.92;;
32760;SDS011;19126;47.472;7.850;2023-04-07T04:47:33;4.30;;;2.83;;
32760;SDS011;19126;47.472;7.850;2023-04-07T04:50:03;7.43;;;3.78;;
32760;SDS011;19126;47.472;7.850;2023-04-07T04:52:36;7.60;;;3.40;;
32760;SDS011;19126;47.472;7.850;2023-04-07T04:55:05;5.03;;;3.30;;
32760;SDS011;19126;47.472;7.850;2023-04-07T04:57:33;4.28;;;2.95;;
32760;SDS011;19126;47.472;7.850;2023-04-07T05:00:01;3.88;;;2.95;;
32760;SDS011;19126;47.472;7.850;2023-04-07T05:02:29;4.03;;;2.78;;
32760;SDS011;19126;47.472;7.850;2023-04-07T05:04:56;3.80;;;2.83;;
32760;SDS011;19126;47.472;7.850;2023-04-07T05:07:24;7.25;;;3.15;;
32760;SDS011;19126;47.472;7.850;2023-04-07T05:09:51;5.53;;;3.50;;
32760;SDS011;19126;47.472;7.850;2023-04-07T05:12:20;5.20;;;3.55;;
32760;SDS011;19126;47.472;7.850;2023-04-07T05:14:47;3.90;;;3.10;;
32760;SDS011;19126;47.472;7.850;2023-04-07T05:17:15;3.60;;;2.95;;
32760;SDS011;19126;47.472;7.850;2023-04-07T05:19:42;3.60;;;2.67;;
32760;SDS011;19126;47.472;7.850;2023-04-07T05:22:09;5.13;;;3.22;;
32760;SDS011;19126;47.472;7.850;2023-04-07T05:24:37;4.07;;;3.00;;
32760;SDS011;19126;47.472;7.850;2023-04-07T05:27:06;7.43;;;4.60;;
32760;SDS011;19126;47.472;7.850;2023-04-07T05:29:35;8.35;;;4.97;;
32760;SDS011;19126;47.472;7.850;2023-04-07T05:32:03;7.00;;;3.92;;
32760;SDS011;19126;47.472;7.850;2023-04-07T05:34:31;5.03;;;3.53;;
32760;SDS011;19126;47.472;7.850;2023-04-07T05:36:58;7.38;;;3.83;;
32760;SDS011;19126;47.472;7.850;2023-04-07T05:39:25;8.68;;;4.15;;
32760;SDS011;19126;47.472;7.850;2023-04-07T05:41:53;5.13;;;3.75;;
32760;SDS011;19126;47.472;7.850;2023-04-07T05:44:20;7.80;;;4.05;;
32760;SDS011;19126;47.472;7.850;2023-04-07T05:46:49;6.40;;;3.70;;
32760;SDS011;19126;47.472;7.850;2023-04-07T05:49:19;4.50;;;3.45;;
32760;SDS011;19126;47.472;7.850;2023-04-07T05:51:47;9.63;;;4.40;;
32760;SDS011;19126;47.472;7.850;2023-04-07T05:54:14;5.85;;;3.38;;
32760;SDS011;19126;47.472;7.850;2023-04-07T05:56:44;5.13;;;3.15;;
32760;SDS011;19126;47.472;7.850;2023-04-07T05:59:12;3.95;;;2.97;;
32760;SDS011;19126;47.472;7.850;2023-04-07T06:01:39;6.05;;;3.25;;
32760;SDS011;19126;47.472;7.850;2023-04-07T06:04:09;5.10;;;3.40;;
32760;SDS011;19126;47.472;7.850;2023-04-07T06:06:39;7.03;;;3.70;;
32760;SDS011;19126;47.472;7.850;2023-04-07T06:11:35;6.75;;;4.00;;
32760;SDS011;19126;47.472;7.850;2023-04-07T06:14:02;6.10;;;3.88;;
32760;SDS011;19126;47.472;7.850;2023-04-07T06:16:30;7.60;;;3.92;;
32760;SDS011;19126;47.472;7.850;2023-04-07T06:18:57;5.95;;;3.47;;
32760;SDS011;19126;47.472;7.850;2023-04-07T06:21:26;6.18;;;3.22;;
32760;SDS011;19126;47.472;7.850;2023-04-07T06:23:53;3.95;;;3.10;;
32760;SDS011;19126;47.472;7.850;2023-04-07T06:26:21;6.57;;;3.80;;
32760;SDS011;19126;47.472;7.850;2023-04-07T06:28:48;9.02;;;5.85;;
32760;SDS011;19126;47.472;7.850;2023-04-07T06:31:15;8.48;;;3.78;;
32760;SDS011;19126;47.472;7.850;2023-04-07T06:33:43;8.10;;;3.80;;
32760;SDS011;19126;47.472;7.850;2023-04-07T06:36:10;4.47;;;3.33;;
32760;SDS011;19126;47.472;7.850;2023-04-07T06:38:39;3.97;;;2.85;;
32760;SDS011;19126;47.472;7.850;2023-04-07T06:41:06;4.88;;;2.80;;
32760;SDS011;19126;47.472;7.850;2023-04-07T06:43:37;5.50;;;3.20;;
32760;SDS011;19126;47.472;7.850;2023-04-07T06:46:04;5.13;;;3.40;;
32760;SDS011;19126;47.472;7.850;2023-04-07T06:48:31;8.98;;;4.13;;
32760;SDS011;19126;47.472;7.850;2023-04-07T06:50:59;6.50;;;4.13;;
32760;SDS011;19126;47.472;7.850;2023-04-07T06:53:26;11.52;;;5.30;;
32760;SDS011;19126;47.472;7.850;2023-04-07T06:56:02;10.18;;;5.25;;
32760;SDS011;19126;47.472;7.850;2023-04-07T06:58:31;7.72;;;5.38;;
32760;SDS011;19126;47.472;7.850;2023-04-07T07:00:59;8.38;;;5.10;;
32760;SDS011;19126;47.472;7.850;2023-04-07T07:03:27;7.93;;;5.97;;
32760;SDS011;19126;47.472;7.850;2023-04-07T07:05:55;9.93;;;4.97;;
32760;SDS011;19126;47.472;7.850;2023-04-07T07:08:24;7.57;;;4.30;;
32760;SDS011;19126;47.472;7.850;2023-04-07T07:10:53;5.93;;;4.03;;
32760;SDS011;19126;47.472;7.850;2023-04-07T07:13:22;7.57;;;4.35;;
32760;SDS011;19126;47.472;7.850;2023-04-07T07:15:51;6.03;;;4.18;;
32760;SDS011;19126;47.472;7.850;2023-04-07T07:18:19;10.63;;;4.45;;
32760;SDS011;19126;47.472;7.850;2023-04-07T07:20:47;5.95;;;4.25;;
32760;SDS011;19126;47.472;7.850;2023-04-07T07:23:18;9.68;;;5.38;;
32760;SDS011;19126;47.472;7.850;2023-04-07T07:25:45;7.53;;;5.28;;
32760;SDS011;19126;47.472;7.850;2023-04-07T07:28:12;11.32;;;7.28;;
32760;SDS011;19126;47.472;7.850;2023-04-07T07:30:41;9.10;;;5.93;;
32760;SDS011;19126;47.472;7.850;2023-04-07T07:33:09;10.15;;;5.90;;
32760;SDS011;19126;47.472;7.850;2023-04-07T07:35:36;6.20;;;5.30;;
32760;SDS011;19126;47.472;7.850;2023-04-07T07:38:04;4.80;;;3.85;;
32760;SDS011;19126;47.472;7.850;2023-04-07T07:40:31;6.75;;;3.88;;
32760;SDS011;19126;47.472;7.850;2023-04-07T07:43:01;8.65;;;4.40;;
32760;SDS011;19126;47.472;7.850;2023-04-07T07:45:30;5.03;;;3.33;;
32760;SDS011;19126;47.472;7.850;2023-04-07T07:47:59;4.35;;;3.72;;
32760;SDS011;19126;47.472;7.850;2023-04-07T07:50:27;4.13;;;2.90;;
32760;SDS011;19126;47.472;7.850;2023-04-07T07:52:55;17.63;;;3.35;;
32760;SDS011;19126;47.472;7.850;2023-04-07T07:55:22;4.90;;;3.58;;
32760;SDS011;19126;47.472;7.850;2023-04-07T07:57:52;4.95;;;4.40;;
32760;SDS011;19126;47.472;7.850;2023-04-07T08:00:20;4.18;;;3.05;;
32760;SDS011;19126;47.472;7.850;2023-04-07T08:02:48;5.43;;;3.30;;
32760;SDS011;19126;47.472;7.850;2023-04-07T08:05:16;4.00;;;3.08;;
32760;SDS011;19126;47.472;7.850;2023-04-07T08:07:44;4.88;;;3.28;;
32760;SDS011;19126;47.472;7.850;2023-04-07T08:10:13;5.65;;;4.10;;
32760;SDS011;19126;47.472;7.850;2023-04-07T08:12:40;8.40;;;4.00;;
32760;SDS011;19126;47.472;7.850;2023-04-07T08:15:08;4.63;;;3.90;;
32760;SDS011;19126;47.472;7.850;2023-04-07T08:17:36;4.40;;;3.53;;
32760;SDS011;19126;47.472;7.850;2023-04-07T08:20:04;5.25;;;3.95;;
32760;SDS011;19126;47.472;7.850;2023-04-07T08:22:36;7.80;;;4.57;;
32760;SDS011;19126;47.472;7.850;2023-04-07T08:25:04;4.10;;;3.70;;
32760;SDS011;19126;47.472;7.850;2023-04-07T08:27:34;4.60;;;3.67;;
32760;SDS011;19126;47.472;7.850;2023-04-07T08:30:03;4.05;;;3.50;;
32760;SDS011;19126;47.472;7.850;2023-04-07T08:32:35;4.75;;;3.38;;
32760;SDS011;19126;47.472;7.850;2023-04-07T08:35:03;6.68;;;3.58;;
32760;SDS011;19126;47.472;7.850;2023-04-07T08:37:36;4.78;;;3.17;;
32760;SDS011;19126;47.472;7.850;2023-04-07T08:40:05;6.70;;;3.15;;
32760;SDS011;19126;47.472;7.850;2023-04-07T08:42:33;3.20;;;2.80;;
32760;SDS011;19126;47.472;7.850;2023-04-07T08:47:34;3.15;;;2.85;;
32760;SDS011;19126;47.472;7.850;2023-04-07T08:50:02;5.35;;;2.67;;
32760;SDS011;19126;47.472;7.850;2023-04-07T08:52:33;4.50;;;2.50;;
32760;SDS011;19126;47.472;7.850;2023-04-07T08:55:09;5.40;;;2.83;;
32760;SDS011;19126;47.472;7.850;2023-04-07T08:57:40;3.67;;;2.83;;
32760;SDS011;19126;47.472;7.850;2023-04-07T09:00:08;3.20;;;2.90;;
32760;SDS011;19126;47.472;7.850;2023-04-07T09:02:38;3.75;;;3.10;;
32760;SDS011;19126;47.472;7.850;2023-04-07T09:05:07;3.30;;;2.80;;
32760;SDS011;19126;47.472;7.850;2023-04-07T09:07:36;4.05;;;3.05;;
32760;SDS011;19126;47.472;7.850;2023-04-07T09:10:08;4.93;;;3.25;;
32760;SDS011;19126;47.472;7.850;2023-04-07T09:12:36;6.15;;;3.83;;
32760;SDS011;19126;47.472;7.850;2023-04-07T09:15:05;5.40;;;3.80;;
32760;SDS011;19126;47.472;7.850;2023-04-07T09:17:34;6.13;;;3.42;;
32760;SDS011;19126;47.472;7.850;2023-04-07T09:20:01;4.18;;;3.13;;
32760;SDS011;19126;47.472;7.850;2023-04-07T09:22:33;3.60;;;2.80;;
32760;SDS011;19126;47.472;7.850;2023-04-07T09:25:14;4.07;;;3.10;;
32760;SDS011;19126;47.472;7.850;2023-04-07T09:27:53;3.80;;;2.45;;
32760;SDS011;19126;47.472;7.850;2023-04-07T09:30:23;4.35;;;2.50;;
32760;SDS011;19126;47.472;7.850;2023-04-07T09:32:50;2.22;;;2.03;;
32760;SDS011;19126;47.472;7.850;2023-04-07T09:35:18;3.15;;;1.85;;
32760;SDS011;19126;47.472;7.850;2023-04-07T09:37:59;3.47;;;2.05;;
32760;SDS011;19126;47.472;7.850;2023-04-07T09:40:30;2.42;;;1.38;;
32760;SDS011;19126;47.472;7.850;2023-04-07T09:42:58;4.80;;;1.60;;
32760;SDS011;19126;47.472;7.850;2023-04-07T09:45:27;2.15;;;1.50;;
32760;SDS011;19126;47.472;7.850;2023-04-07T09:47:57;1.38;;;1.10;;
32760;SDS011;19126;47.472;7.850;2023-04-07T09:50:31;1.35;;;1.25;;
32760;SDS011;19126;47.472;7.850;2023-04-07T09:53:02;1.52;;;1.40;;
32760;SDS011;19126;47.472;7.850;2023-04-07T09:55:31;4.25;;;1.15;;
32760;SDS011;19126;47.472;7.850;2023-04-07T09:57:59;2.47;;;1.10;;
32760;SDS011;19126;47.472;7.850;2023-04-07T10:00:30;1.27;;;1.17;;
32760;SDS011;19126;47.472;7.850;2023-04-07T10:02:58;1.05;;;0.90;;
32760;SDS011;19126;47.472;7.850;2023-04-07T10:05:25;2.53;;;1.40;;
32760;SDS011;19126;47.472;7.850;2023-04-07T10:07:54;1.15;;;1.00;;
32760;SDS011;19126;47.472;7.850;2023-04-07T10:10:22;1.95;;;1.33;;
32760;SDS011;19126;47.472;7.850;2023-04-07T10:12:54;1.23;;;1.13;;
32760;SDS011;19126;47.472;7.850;2023-04-07T10:15:23;1.25;;;1.00;;
32760;SDS011;19126;47.472;7.850;2023-04-07T10:17:50;1.30;;;1.20;;
32760;SDS011;19126;47.472;7.850;2023-04-07T10:20:20;0.85;;;0.80;;
32760;SDS011;19126;47.472;7.850;2023-04-07T10:22:50;1.50;;;0.80;;
32760;SDS011;19126;47.472;7.850;2023-04-07T10:25:19;1.20;;;0.90;;
32760;SDS011;19126;47.472;7.850;2023-04-07T10:27:50;0.77;;;0.75;;
32760;SDS011;19126;47.472;7.850;2023-04-07T10:30:25;1.65;;;0.80;;
32760;SDS011;19126;47.472;7.850;2023-04-07T10:32:55;0.80;;;0.80;;
32760;SDS011;19126;47.472;7.850;2023-04-07T10:35:23;0.70;;;0.70;;
32760;SDS011;19126;47.472;7.850;2023-04-07T10:38:09;0.80;;;0.80;;
32760;SDS011;19126;47.472;7.850;2023-04-07T10:40:39;0.80;;;0.80;;
32760;SDS011;19126;47.472;7.850;2023-04-07T10:43:09;1.65;;;1.00;;
32760;SDS011;19126;47.472;7.850;2023-04-07T10:45:56;3.40;;;0.65;;
32760;SDS011;19126;47.472;7.850;2023-04-07T10:48:26;1.10;;;0.70;;
32760;SDS011;19126;47.472;7.850;2023-04-07T10:51:13;1.77;;;1.15;;
32760;SDS011;19126;47.472;7.850;2023-04-07T11:02:41;0.82;;;0.82;;
32760;SDS011;19126;47.472;7.850;2023-04-07T11:05:18;1.05;;;0.95;;
32760;SDS011;19126;47.472;7.850;2023-04-07T11:07:48;0.70;;;0.70;;
32760;SDS011;19126;47.472;7.850;2023-04-07T11:10:21;1.02;;;1.00;;
32760;SDS011;19126;47.472;7.850;2023-04-07T11:12:59;2.05;;;0.95;;
32760;SDS011;19126;47.472;7.850;2023-04-07T11:15:33;1.52;;;0.60;;
32760;SDS011;19126;47.472;7.850;2023-04-07T11:18:08;1.10;;;1.00;;
32760;SDS011;19126;47.472;7.850;2023-04-07T11:20:44;2.25;;;0.95;;
32760;SDS011;19126;47.472;7.850;2023-04-07T11:23:16;0.70;;;0.70;;
32760;SDS011;19126;47.472;7.850;2023-04-07T11:25:47;0.52;;;0.52;;
32760;SDS011;19126;47.472;7.850;2023-04-07T11:28:16;2.20;;;0.87;;
32760;SDS011;19126;47.472;7.850;2023-04-07T11:30:46;0.90;;;0.90;;
32760;SDS011;19126;47.472;7.850;2023-04-07T11:33:17;1.10;;;0.95;;
32760;SDS011;19126;47.472;7.850;2023-04-07T11:35:47;1.23;;;1.13;;
32760;SDS011;19126;47.472;7.850;2023-04-07T11:38:20;0.90;;;0.90;;
32760;SDS011;19126;47.472;7.850;2023-04-07T11:40:49;0.95;;;0.93;;
32760;SDS011;19126;47.472;7.850;2023-04-07T11:43:18;1.38;;;0.75;;
32760;SDS011;19126;47.472;7.850;2023-04-07T11:48:49;1.20;;;1.10;;
32760;SDS011;19126;47.472;7.850;2023-04-07T11:51:17;1.33;;;1.23;;
32760;SDS011;19126;47.472;7.850;2023-04-07T11:53:46;4.25;;;1.10;;
32760;SDS011;19126;47.472;7.850;2023-04-07T11:56:19;1.13;;;0.90;;
32760;SDS011;19126;47.472;7.850;2023-04-07T11:58:47;1.42;;;1.00;;
32760;SDS011;19126;47.472;7.850;2023-04-07T12:01:15;1.30;;;0.88;;
32760;SDS011;19126;47.472;7.850;2023-04-07T12:03:56;1.05;;;0.63;;
32760;SDS011;19126;47.472;7.850;2023-04-07T12:06:26;0.52;;;0.52;;
32760;SDS011;19126;47.472;7.850;2023-04-07T12:08:54;1.45;;;0.70;;
32760;SDS011;19126;47.472;7.850;2023-04-07T12:11:21;0.50;;;0.50;;
32760;SDS011;19126;47.472;7.850;2023-04-07T12:13:50;0.63;;;0.63;;
32760;SDS011;19126;47.472;7.850;2023-04-07T12:16:18;1.95;;;0.52;;
32760;SDS011;19126;47.472;7.850;2023-04-07T12:18:46;0.60;;;0.60;;
32760;SDS011;19126;47.472;7.850;2023-04-07T12:21:15;0.38;;;0.38;;
32760;SDS011;19126;47.472;7.850;2023-04-07T12:23:42;0.40;;;0.40;;
32760;SDS011;19126;47.472;7.850;2023-04-07T12:26:10;0.40;;;0.40;;
32760;SDS011;19126;47.472;7.850;2023-04-07T12:28:37;0.40;;;0.40;;
32760;SDS011;19126;47.472;7.850;2023-04-07T12:31:04;0.38;;;0.38;;
32760;SDS011;19126;47.472;7.850;2023-04-07T12:33:32;0.77;;;0.77;;
32760;SDS011;19126;47.472;7.850;2023-04-07T12:35:59;1.60;;;0.70;;
32760;SDS011;19126;47.472;7.850;2023-04-07T12:38:28;1.70;;;0.82;;
32760;SDS011;19126;47.472;7.850;2023-04-07T12:40:56;0.90;;;0.90;;
32760;SDS011;19126;47.472;7.850;2023-04-07T12:43:27;0.90;;;0.80;;
32760;SDS011;19126;47.472;7.850;2023-04-07T12:45:55;0.98;;;0.90;;
32760;SDS011;19126;47.472;7.850;2023-04-07T12:48:22;1.20;;;1.10;;
32760;SDS011;19126;47.472;7.850;2023-04-07T12:50:51;1.35;;;0.90;;
32760;SDS011;19126;47.472;7.850;2023-04-07T12:53:19;0.90;;;0.90;;
32760;SDS011;19126;47.472;7.850;2023-04-07T12:55:48;0.70;;;0.70;;
32760;SDS011;19126;47.472;7.850;2023-04-07T12:58:15;1.00;;;0.73;;
32760;SDS011;19126;47.472;7.850;2023-04-07T13:00:43;1.67;;;0.80;;
32760;SDS011;19126;47.472;7.850;2023-04-07T13:03:11;1.40;;;0.77;;
32760;SDS011;19126;47.472;7.850;2023-04-07T13:05:39;0.90;;;0.90;;
32760;SDS011;19126;47.472;7.850;2023-04-07T13:08:06;1.23;;;1.02;;
32760;SDS011;19126;47.472;7.850;2023-04-07T13:10:37;2.08;;;1.30;;
32760;SDS011;19126;47.472;7.850;2023-04-07T13:13:06;1.15;;;1.05;;
32760;SDS011;19126;47.472;7.850;2023-04-07T13:15:36;1.35;;;1.17;;
32760;SDS011;19126;47.472;7.850;2023-04-07T13:18:03;1.33;;;1.15;;
32760;SDS011;19126;47.472;7.850;2023-04-07T13:20:31;2.33;;;1.38;;
32760;SDS011;19126;47.472;7.850;2023-04-07T13:22:58;1.70;;;1.23;;
32760;SDS011;19126;47.472;7.850;2023-04-07T13:25:25;2.45;;;1.50;;
32760;SDS011;19126;47.472;7.850;2023-04-07T13:27:53;0.70;;;0.70;;
32760;SDS011;19126;47.472;7.850;2023-04-07T13:30:22;0.60;;;0.60;;
32760;SDS011;19126;47.472;7.850;2023-04-07T13:32:49;0.70;;;0.70;;
32760;SDS011;19126;47.472;7.850;2023-04-07T13:35:17;1.38;;;0.90;;
32760;SDS011;19126;47.472;7.850;2023-04-07T13:37:44;0.70;;;0.70;;
32760;SDS011;19126;47.472;7.850;2023-04-07T13:40:11;0.90;;;0.90;;
32760;SDS011;19126;47.472;7.850;2023-04-07T13:42:39;0.90;;;0.90;;
32760;SDS011;19126;47.472;7.850;2023-04-07T13:45:07;1.17;;;0.68;;
32760;SDS011;19126;47.472;7.850;2023-04-07T13:47:36;0.60;;;0.60;;
32760;SDS011;19126;47.472;7.850;2023-04-07T13:50:04;0.57;;;0.57;;
32760;SDS011;19126;47.472;7.850;2023-04-07T13:52:32;0.68;;;0.68;;
32760;SDS011;19126;47.472;7.850;2023-04-07T13:55:00;0.57;;;0.57;;
32760;SDS011;19126;47.472;7.850;2023-04-07T13:57:29;0.70;;;0.70;;
32760;SDS011;19126;47.472;7.850;2023-04-07T13:59:57;1.17;;;1.08;;
32760;SDS011;19126;47.472;7.850;2023-04-07T14:02:25;1.15;;;0.95;;
32760;SDS011;19126;47.472;7.850;2023-04-07T14:04:55;2.35;;;0.80;;
32760;SDS011;19126;47.472;7.850;2023-04-07T14:07:22;1.02;;;0.80;;
32760;SDS011;19126;47.472;7.850;2023-04-07T14:09:50;0.95;;;0.73;;
32760;SDS011;19126;47.472;7.850;2023-04-07T14:12:18;0.85;;;0.85;;
32760;SDS011;19126;47.472;7.850;2023-04-07T14:14:47;0.73;;;0.70;;
32760;SDS011;19126;47.472;7.850;2023-04-07T14:17:16;1.13;;;0.70;;
32760;SDS011;19126;47.472;7.850;2023-04-07T14:19:43;1.02;;;0.80;;
32760;SDS011;19126;47.472;7.850;2023-04-07T14:22:14;0.95;;;0.80;;
32760;SDS011;19126;47.472;7.850;2023-04-07T14:24:41;1.00;;;0.60;;
32760;SDS011;19126;47.472;7.850;2023-04-07T14:27:09;0.60;;;0.60;;
32760;SDS011;19126;47.472;7.850;2023-04-07T14:29:36;3.30;;;0.77;;
32760;SDS011;19126;47.472;7.850;2023-04-07T14:32:04;0.70;;;0.70;;
32760;SDS011;19126;47.472;7.850;2023-04-07T14:36:59;0.75;;;0.75;;
32760;SDS011;19126;47.472;7.850;2023-04-07T14:39:27;0.50;;;0.50;;
32760;SDS011;19126;47.472;7.850;2023-04-07T14:41:54;0.40;;;0.40;;
32760;SDS011;19126;47.472;7.850;2023-04-07T14:44:22;0.60;;;0.60;;
32760;SDS011;19126;47.472;7.850;2023-04-07T14:46:49;1.02;;;0.60;;
32760;SDS011;19126;47.472;7.850;2023-04-07T14:49:17;0.57;;;0.57;;
32760;SDS011;19126;47.472;7.850;2023-04-07T14:51:44;0.50;;;0.50;;
32760;SDS011;19126;47.472;7.850;2023-04-07T14:54:11;0.60;;;0.60;;
32760;SDS011;19126;47.472;7.850;2023-04-07T14:56:40;0.77;;;0.77;;
32760;SDS011;19126;47.472;7.850;2023-04-07T14:59:07;0.73;;;0.73;;
32760;SDS011;19126;47.472;7.850;2023-04-07T15:01:35;1.15;;;0.63;;
32760;SDS011;19126;47.472;7.850;2023-04-07T15:04:03;0.57;;;0.57;;
32760;SDS011;19126;47.472;7.850;2023-04-07T15:06:31;0.55;;;0.55;;
32760;SDS011;19126;47.472;7.850;2023-04-07T15:08:58;0.70;;;0.70;;
32760;SDS011;19126;47.472;7.850;2023-04-07T15:11:26;0.55;;;0.55;;
32760;SDS011;19126;47.472;7.850;2023-04-07T15:13:54;0.45;;;0.45;;
32760;SDS011;19126;47.472;7.850;2023-04-07T15:16:22;0.70;;;0.70;;
32760;SDS011;19126;47.472;7.850;2023-04-07T15:18:49;0.60;;;0.60;;
32760;SDS011;19126;47.472;7.850;2023-04-07T15:21:16;0.80;;;0.60;;